Bville, New York
Current Conditions -  °F | °C
As of 6:54 PM on Thursday 18 Dec 2014 (Local Time) from KFZY Reporting Station
Overcast Overcast  
Wind Chill: -3°   Ceiling: 1600
Heat Index:   Visibility: 10mi
Dew Point: -3°   Wind: 8mph
Humidity: 78%   Direction: 300°WNW
Pressure: 30.03"   Gusts: NA
Location:  43.1825°N, 76.3664°W
Report Text: KFZY 182354Z AUTO 30007KT 10SM OVC016 01/M03 A3003 RMK AO2 UPB13E49 SLP174 P0000 60000 T00061028 10006 20000 53006
Loading
Personal Weather Stations






























Interactive Weather Map New forecast layout! Learn more

10-Day Weather Forecast

Advertisements
Track Severe Weather on mobile